^^
Datos históricos de la estación: Murcia-Puente Tocinos
Diario Informe para Febrero 7, 2019 Unidades:  Ingés    Métrico   Ambas
Diario Semanal Mensual Anual
  Máxima: Mínima: Promedio:
Temperatura: 103.5 °F 77 °F 87.1 °F
Punto de rocio: 73.4 °F 47.7 °F 63.5 °F
Humedad: 85% 15.6% 52%
Velocidad viento: 11.8mph 0mph 4.8mph
Racha viento: 21mph - -
Viento- - SSE
Presión: 29.8 in 29.7 in -
Precipitación: 0 in    
 
 
Tabla de datos para Febrero 7, 2019
Hora Temperatura Punto de rocio Presión Viento Velocidad viento Racha viento Humedad Intensidad lluvia(por hora) Nubes
00:04 81.5 °F 71.1 °F 29.8 in NNE 4 mph 8.5 mph 71% 0 in
00:09 81.3 °F 70.9 °F 29.8 in NNE 4.2 mph 9.2 mph 70.5% 0 in
00:14 81.3 °F 70.9 °F 29.8 in NNE 5.2 mph 9 mph 70.5% 0 in
00:19 81.3 °F 71.1 °F 29.8 in NNE 5.1 mph 8.5 mph 71.2% 0 in
00:24 81.1 °F 71.4 °F 29.8 in NNE 4.7 mph 11.5 mph 72.4% 0 in
00:29 81 °F 71.4 °F 29.8 in NNE 4.8 mph 12 mph 73% 0 in
00:34 80.8 °F 71.4 °F 29.8 in North 5.4 mph 8 mph 73.4% 0 in
00:39 80.8 °F 71.8 °F 29.8 in NE 5.2 mph 7.4 mph 74% 0 in
00:44 80.6 °F 71.6 °F 29.8 in NNE 4 mph 9.7 mph 74.2% 0 in
00:49 80.4 °F 71.8 °F 29.8 in NNE 4.2 mph 10 mph 75% 0 in
00:54 80.2 °F 72 °F 29.8 in North 5.4 mph 8.7 mph 76% 0 in
00:59 80.1 °F 72 °F 29.8 in NNE 5.4 mph 9.2 mph 76.6% 0 in
01:04 80.1 °F 72.1 °F 29.8 in NNE 5.4 mph 11.5 mph 77% 0 in
01:09 79.9 °F 72 °F 29.8 in NE 5.3 mph 12 mph 77% 0 in
01:14 79.9 °F 72.3 °F 29.8 in North 5.2 mph 7 mph 77.9% 0 in
01:19 79.9 °F 72.3 °F 29.8 in NNE 5 mph 6.2 mph 78% 0 in
01:24 79.9 °F 72.7 °F 29.8 in NNE 3.6 mph 6 mph 78.6% 0 in
01:29 79.7 °F 72.7 °F 29.8 in NNO 3.5 mph 6 mph 79% 0 in
01:34 79.7 °F 72.7 °F 29.8 in NNE 3.1 mph 6 mph 79% 0 in
01:39 79.5 °F 72.5 °F 29.8 in NE 3 mph 5.8 mph 79.3% 0 in
01:44 79.5 °F 72.7 °F 29.8 in NNO 2.4 mph 6 mph 80% 0 in
01:49 79.3 °F 72.7 °F 29.8 in North 2.4 mph 5 mph 80% 0 in
01:54 79.3 °F 72.9 °F 29.8 in NNE 2.1 mph 5.9 mph 80.7% 0 in
01:59 79.2 °F 72.9 °F 29.8 in NE 2.2 mph 6 mph 81% 0 in
02:04 79.2 °F 72.7 °F 29.8 in North 3.1 mph 6 mph 81% 0 in
02:09 79 °F 72.7 °F 29.8 in NO 3.1 mph 4 mph 81.2% 0 in
02:14 79 °F 73 °F 29.8 in NNO 1.6 mph 5.2 mph 82% 0 in
02:19 79 °F 72.9 °F 29.8 in NNE 1.5 mph 5 mph 81.5% 0 in
02:24 79 °F 73 °F 29.8 in North 2 mph 5 mph 82% 0 in
02:29 79 °F 73 °F 29.8 in North 2 mph 5 mph 82% 0 in
02:34 79 °F 73 °F 29.8 in NNE 2 mph 5 mph 82% 0 in
02:39 79 °F 73 °F 29.8 in NNO 2 mph 3.6 mph 82% 0 in
02:44 79 °F 73.4 °F 29.8 in NNO 1.4 mph 4 mph 82.8% 0 in
02:49 79 °F 73.4 °F 29.8 in NO 1.4 mph 4.6 mph 83% 0 in
02:54 79 °F 73.4 °F 29.8 in NO 1.7 mph 5 mph 83% 0 in
02:59 79 °F 73.4 °F 29.8 in NO 1.9 mph 5 mph 83% 0 in
03:04 78.8 °F 73.2 °F 29.8 in ONO 2 mph 5 mph 83% 0 in
03:09 78.8 °F 73.2 °F 29.8 in NO 2 mph 5 mph 83% 0 in
03:14 78.8 °F 73.2 °F 29.8 in NO 2 mph 4 mph 83% 0 in
03:19 78.8 °F 73.2 °F 29.8 in NO 2 mph 3.5 mph 83% 0 in
03:24 78.8 °F 73.2 °F 29.8 in NO 1.4 mph 3.6 mph 83% 0 in
03:29 78.8 °F 73.2 °F 29.8 in NO 1.4 mph 4 mph 83% 0 in
03:34 78.8 °F 73.2 °F 29.8 in NO 0.1 mph 2.3 mph 83% 0 in
03:39 78.8 °F 73 °F 29.8 in ESE 0.3 mph 6.2 mph 82.7% 0 in
03:44 78.4 °F 72.9 °F 29.8 in SE 1.8 mph 6 mph 82.9% 0 in
03:49 78.4 °F 72.9 °F 29.8 in SE 1.9 mph 5 mph 83% 0 in
03:54 78.4 °F 72.9 °F 29.8 in SE 2.4 mph 3 mph 83% 0 in
03:59 78.4 °F 72.9 °F 29.8 in SE 1.9 mph 5.9 mph 83% 0 in
04:04 78.4 °F 72.5 °F 29.8 in Calm   6 mph 82.2% 0 in
04:09 78.4 °F 72.1 °F 29.8 in SE 0.3 mph 6 mph 81.1% 0 in
04:14 78.4 °F 72 °F 29.8 in Este 2 mph 3.6 mph 80.7% 0 in
04:19 78.4 °F 71.8 °F 29.8 in Este 2 mph 4.6 mph 80% 0 in
04:24 78.4 °F 71.8 °F 29.8 in Este 2 mph 5 mph 80% 0 in
04:29 78.4 °F 71.8 °F 29.8 in NNE 1.9 mph 3.5 mph 80.1% 0 in
04:34 78.4 °F 72.1 °F 29.8 in NNO 1.4 mph 3 mph 81% 0 in
04:39 78.3 °F 72 °F 29.8 in NNO 1.4 mph 3 mph 81% 0 in
04:44 78.3 °F 72 °F 29.8 in North 1.4 mph 3.6 mph 81.4% 0 in
04:49 78.3 °F 72.3 °F 29.8 in NNE 1.4 mph 4 mph 82.1% 0 in
04:54 78.3 °F 72.7 °F 29.8 in NNE 1.4 mph 1.4 mph 83% 0 in
04:59 78.3 °F 73 °F 29.8 in NNE 1.1 mph 1 mph 83.8% 0 in
05:04 78.3 °F 73 °F 29.8 in Calm     84% 0 in
05:09 78.3 °F 72.9 °F 29.8 in Calm   2.4 mph 83.5% 0 in
05:14 78.3 °F 72.9 °F 29.8 in Calm   2.4 mph 84% 0 in
05:19 78.1 °F 72.9 °F 29.8 in Calm   3.6 mph 84% 0 in
05:24 78.1 °F 72.9 °F 29.8 in Calm   4 mph 84% 0 in
05:29 78.1 °F 72.7 °F 29.8 in Calm   3 mph 84% 0 in
05:34 77.9 °F 72.7 °F 29.8 in Calm     84% 0 in
05:39 77.7 °F 72.9 °F 29.8 in Calm     84.8% 0 in
05:44 77.7 °F 72.9 °F 29.8 in Calm     85% 0 in
05:49 77.7 °F 72.5 °F 29.8 in Calm     84% 0 in
05:54 77.7 °F 72.1 °F 29.8 in Calm     83% 0 in
05:59 77.5 °F 72 °F 29.8 in Calm   5.2 mph 82.7% 0 in
06:04 77.5 °F 71.1 °F 29.8 in Calm   5 mph 80.7% 0 in
06:09 77.5 °F 70.7 °F 29.8 in Sur 0.3 mph 5 mph 79.7% 0 in
06:14 77.4 °F 69.4 °F 29.8 in SSE 1.8 mph 5.8 mph 76.8% 0 in
06:19 77.4 °F 69.3 °F 29.8 in SSO 2 mph 6.9 mph 76% 0 in
06:24 77.5 °F 69.4 °F 29.8 in SSO 3.6 mph 7 mph 76% 0 in
06:29 77.5 °F 69.4 °F 29.8 in SSO 3.8 mph 7.4 mph 76% 0 in
06:34 77.4 °F 69.3 °F 29.8 in SSO 4.7 mph 7 mph 76% 0 in
06:39 77.4 °F 69.3 °F 29.8 in SSO 4.7 mph 8.1 mph 76% 0 in
06:44 77.4 °F 69.1 °F 29.8 in SO 4.3 mph 8.1 mph 75.7% 0 in
06:49 77.4 °F 68.9 °F 29.8 in SO 4.3 mph 8.1 mph 75.1% 0 in
06:54 77.4 °F 68.7 °F 29.8 in SO 4.3 mph 8.1 mph 75% 0 in
06:59 77.4 °F 68.7 °F 29.8 in SO 4.4 mph 8 mph 75% 0 in
07:04 77.4 °F 68.7 °F 29.8 in OSO 4.7 mph 8.1 mph 75% 0 in
07:09 77.4 °F 69.1 °F 29.8 in OSO 4.7 mph 8.1 mph 75.7% 0 in
07:14 77.4 °F 69.4 °F 29.8 in SO 4.7 mph 8 mph 76.8% 0 in
07:19 77.2 °F 69.4 °F 29.8 in SO 4.7 mph 7 mph 77% 0 in
07:24 77.2 °F 69.6 °F 29.8 in SO 4.3 mph 7 mph 77.8% 0 in
07:29 77.2 °F 69.8 °F 29.8 in SO 4.3 mph 7 mph 78% 0 in
07:34 77.2 °F 69.4 °F 29.8 in SSO 4.3 mph 7.4 mph 77.1% 0 in
07:39 77.2 °F 69.1 °F 29.8 in SSO 4.3 mph 7 mph 76.4% 0 in
07:44 77 °F 68.9 °F 29.8 in SSO 4.7 mph 7.4 mph 75.8% 0 in
07:49 77 °F 68.5 °F 29.8 in SSO 4.7 mph 7 mph 75% 0 in
07:54 77 °F 68.5 °F 29.8 in SSO 4.3 mph 7 mph 75% 0 in
07:59 77.2 °F 68.5 °F 29.8 in SO 4.3 mph 7 mph 75% 0 in
08:04 77.4 °F 68.9 °F 29.8 in SO 4.3 mph 7 mph 75.3% 0 in
08:09 77.5 °F 69.3 °F 29.8 in SO 4.2 mph 6.9 mph 75.8% 0 in
08:14 77.5 °F 68.9 °F 29.8 in SO 3.6 mph 7.4 mph 74.8% 0 in
08:19 77.7 °F 68.4 °F 29.8 in SO 3.9 mph 8.7 mph 72.9% 0 in
08:24 77.7 °F 68 °F 29.8 in OSO 5.2 mph 9 mph 71.9% 0 in
08:29 77.9 °F 67.6 °F 29.8 in OSO 5 mph 8 mph 71.1% 0 in
08:34 78.1 °F 67.6 °F 29.8 in OSO 4.3 mph 6 mph 70.4% 0 in
08:39 78.3 °F 67.6 °F 29.8 in Oeste 4.2 mph 6 mph 70% 0 in
08:44 78.3 °F 67.5 °F 29.8 in Oeste 3.6 mph 6.9 mph 69.6% 0 in
08:49 78.3 °F 67.6 °F 29.8 in Oeste 3.5 mph 7 mph 69.7% 0 in
08:54 78.4 °F 67.5 °F 29.8 in Oeste 3.1 mph 6.2 mph 69% 0 in
08:59 78.6 °F 67.5 °F 29.8 in Oeste 3.2 mph 6 mph 69% 0 in
09:04 78.8 °F 67.6 °F 29.8 in ONO 3.6 mph 6.2 mph 69% 0 in
09:09 79 °F 67.6 °F 29.8 in ONO 3.7 mph 6.9 mph 68.2% 0 in
09:14 79.2 °F 67.6 °F 29.8 in Oeste 4 mph 7 mph 67.9% 0 in
09:19 79.3 °F 67.6 °F 29.8 in Oeste 3.9 mph 6 mph 67.3% 0 in
09:24 79.7 °F 67.8 °F 29.8 in OSO 3.1 mph 6 mph 67% 0 in
09:29 80.2 °F 67.8 °F 29.8 in Oeste 2.9 mph 5.9 mph 66.3% 0 in
09:34 80.6 °F 68.2 °F 29.8 in ONO 2 mph 6 mph 66% 0 in
09:39 81 °F 68.5 °F 29.8 in ONO 2.2 mph 6 mph 66% 0 in
09:44 81.3 °F 68.5 °F 29.8 in Oeste 2.9 mph 5 mph 64.9% 0 in
09:49 81.9 °F 68.5 °F 29.8 in Oeste 2.9 mph 5.2 mph 63.9% 0 in
09:54 82 °F 68.5 °F 29.8 in ONO 2.9 mph 5 mph 63.5% 0 in
09:59 82.6 °F 67.8 °F 29.8 in OSO 2.9 mph 6.9 mph 60.9% 0 in
10:04 83.1 °F 66.9 °F 29.8 in OSO 3.1 mph 7 mph 58.1% 0 in
10:09 83.7 °F 65.3 °F 29.8 in SO 3.1 mph 9.2 mph 54.2% 0 in
10:14 84.4 °F 65.7 °F 29.8 in OSO 3.6 mph 9 mph 53.5% 0 in
10:19 84.9 °F 65.3 °F 29.8 in SSO 3.6 mph 7.4 mph 52% 0 in
10:24 85.5 °F 64.8 °F 29.8 in SSO 3.6 mph 8.5 mph 50.2% 0 in
10:29 85.6 °F 64.2 °F 29.8 in SSO 4 mph 9 mph 48.6% 0 in
10:34 86 °F 62.8 °F 29.8 in SSO 5.9 mph 8.5 mph 45.9% 0 in
10:39 86.4 °F 61.9 °F 29.8 in SSO 5.8 mph 9.2 mph 44.1% 0 in
10:44 86.4 °F 61.7 °F 29.8 in SO 5.4 mph 9 mph 43.8% 0 in
10:49 86.7 °F 62.2 °F 29.8 in SSO 5.2 mph 8.1 mph 44% 0 in
10:54 87.3 °F 61.9 °F 29.8 in SSO 4.3 mph 8 mph 42.9% 0 in
10:59 87.6 °F 61 °F 29.8 in SO 4.3 mph 7 mph 40.9% 0 in
11:04 88 °F 59.4 °F 29.8 in SO 4.3 mph 8.5 mph 38.2% 0 in
11:09 88.2 °F 60.1 °F 29.8 in SSO 4.3 mph 9 mph 39% 0 in
11:14 88.7 °F 59.7 °F 29.8 in Sur 4 mph 7.4 mph 37.8% 0 in
11:19 89.2 °F 60.1 °F 29.8 in SSO 4 mph 7 mph 37.8% 0 in
11:24 89.8 °F 59.5 °F 29.8 in SO 4 mph 8.1 mph 36.3% 0 in
11:29 90.1 °F 57.9 °F 29.8 in SO 4 mph 10.4 mph 34% 0 in
11:34 90.7 °F 56.8 °F 29.8 in OSO 4 mph 10 mph 32.1% 0 in
11:39 91 °F 57.4 °F 29.8 in SO 4.2 mph 9 mph 32.4% 0 in
11:44 91.4 °F 56.5 °F 29.8 in SO 4.7 mph 11.5 mph 31% 0 in
11:49 91.8 °F 56.8 °F 29.8 in SO 4.8 mph 12 mph 30.9% 0 in
11:54 92.5 °F 55.9 °F 29.8 in SO 5.4 mph 9 mph 29.4% 0 in
11:59 93 °F 55.9 °F 29.8 in SO 5.2 mph 9 mph 29% 0 in
12:04 93.6 °F 56.5 °F 29.8 in SO 4.3 mph 9 mph 29% 0 in
12:09 94.3 °F 55.6 °F 29.8 in SO 4.3 mph 8.1 mph 27.4% 0 in
12:14 94.5 °F 55.4 °F 29.8 in OSO 4 mph 10.4 mph 27.1% 0 in
12:19 94.5 °F 55.2 °F 29.8 in OSO 4.2 mph 10 mph 27% 0 in
12:24 94.6 °F 54.7 °F 29.8 in OSO 5.2 mph 10 mph 26.2% 0 in
12:29 94.8 °F 54.7 °F 29.8 in Oeste 4.9 mph 7 mph 26% 0 in
12:34 95.4 °F 52.7 °F 29.8 in ONO 3.6 mph 11.5 mph 23.9% 0 in
12:39 95.7 °F 52 °F 29.8 in NO 4 mph 12 mph 23% 0 in
12:44 95.9 °F 51.3 °F 29.8 in NO 5.9 mph 12 mph 22.2% 0 in
12:49 96.1 °F 51.1 °F 29.8 in ONO 5.8 mph 10 mph 22% 0 in
12:54 96.1 °F 50.7 °F 29.8 in ONO 5.4 mph 9 mph 21.7% 0 in
12:59 96.4 °F 50.4 °F 29.8 in ONO 5 mph 8 mph 21.2% 0 in
13:04 97 °F 50.5 °F 29.8 in NO 3.6 mph 8.1 mph 21% 0 in
13:09 97.5 °F 50.4 °F 29.8 in ONO 3.5 mph 10.7 mph 20.5% 0 in
13:14 97.7 °F 49.8 °F 29.8 in NO 3.1 mph 11 mph 20% 0 in
13:19 97.5 °F 49.8 °F 29.8 in ONO 3.5 mph 10.7 mph 20% 0 in
13:24 97.9 °F 49.8 °F 29.8 in ONO 5.4 mph 11 mph 19.9% 0 in
13:29 98.1 °F 49.3 °F 29.8 in NO 5.5 mph 10.4 mph 19.3% 0 in
13:34 98.4 °F 48.9 °F 29.8 in ONO 6.2 mph 10.4 mph 18.9% 0 in
13:39 98.6 °F 49.3 °F 29.8 in Oeste 6 mph 10 mph 19% 0 in
13:44 99 °F 49.3 °F 29.8 in NO 4.7 mph 9.2 mph 18.8% 0 in
13:49 99.3 °F 49.8 °F 29.8 in NO 4.8 mph 9 mph 19% 0 in
13:54 99.9 °F 49.3 °F 29.8 in NE 5.2 mph 8 mph 18.4% 0 in
13:59 100 °F 49.6 °F 29.8 in NE 4.8 mph 7 mph 18.6% 0 in
14:04 100.2 °F 49.5 °F 29.8 in NNO 3.6 mph 7 mph 18.2% 0 in
14:09 100.9 °F 50.2 °F 29.8 in Oeste 3.3 mph 5 mph 18.3% 0 in
14:14 101.7 °F 49.6 °F 29.8 in NO 1.8 mph 6.9 mph 17.7% 0 in
14:19 101.8 °F 48.9 °F 29.8 in SSE 2.1 mph 9.2 mph 17.1% 0 in
14:24 101.7 °F 48.9 °F 29.8 in SO 3.6 mph 9 mph 17.2% 0 in
14:29 101.5 °F 48.6 °F 29.8 in OSO 3.5 mph 6 mph 17% 0 in
14:34 101.7 °F 48.7 °F 29.8 in Oeste 2.9 mph 6 mph 17% 0 in
14:39 101.7 °F 49.5 °F 29.8 in Oeste 2.9 mph 6 mph 17.4% 0 in
14:44 101.8 °F 50.2 °F 29.8 in NE 2.9 mph 6.9 mph 17.9% 0 in
14:49 101.7 °F 48.9 °F 29.8 in NE 3 mph 7 mph 17.2% 0 in
14:54 101.5 °F 49.1 °F 29.8 in ENE 4 mph 7 mph 17.3% 0 in
14:59 101.5 °F 48.6 °F 29.8 in ENE 3.8 mph 6.9 mph 17% 0 in
15:04 101.3 °F 48.4 °F 29.8 in NE 3.1 mph 8.1 mph 17% 0 in
15:09 101.1 °F 48.6 °F 29.8 in NE 3.2 mph 8 mph 17.1% 0 in
15:14 101.5 °F 48.4 °F 29.8 in NNE 3.6 mph 6 mph 16.9% 0 in
15:19 101.8 °F 47.8 °F 29.8 in ONO 3.5 mph 5.2 mph 16.4% 0 in
15:24 102.4 °F 47.7 °F 29.8 in OSO 2.9 mph 5 mph 16% 0 in
15:29 102.7 °F 47.8 °F 29.8 in SSE 2.7 mph 5 mph 16% 0 in
15:34 103.1 °F 48 °F 29.8 in OSO 2 mph 4.6 mph 15.9% 0 in
15:39 103.5 °F 48.4 °F 29.8 in NO 2.1 mph 5.9 mph 16% 0 in
15:44 103.3 °F 47.8 °F 29.8 in NNO 2.4 mph 6 mph 15.6% 0 in
15:49 103.1 °F 48.2 °F 29.8 in North 2.4 mph 5 mph 16% 0 in
15:54 103.3 °F 49.1 °F 29.8 in ENE 2.4 mph 5.8 mph 16.5% 0 in
15:59 103.3 °F 48.4 °F 29.8 in NE 2.5 mph 6 mph 16% 0 in
16:04 103.1 °F 48.4 °F 29.8 in NNE 2.9 mph 8.7 mph 16.1% 0 in
16:09 102.7 °F 51.6 °F 29.8 in Este 3.2 mph 13 mph 18.7% 0 in
16:14 101.8 °F 61.5 °F 29.8 in ESE 4.7 mph 13 mph 27% 0 in
16:19 100.8 °F 63 °F 29.8 in ESE 5.2 mph 13 mph 29.4% 0 in
16:24 100 °F 63.1 °F 29.7 in SE 7.6 mph 15.2 mph 30% 0 in
16:29 99.9 °F 63.7 °F 29.7 in ESE 7.7 mph 15.2 mph 30.8% 0 in
16:34 99.7 °F 63.5 °F 29.8 in SE 8.1 mph 15 mph 30.9% 0 in
16:39 99.1 °F 64 °F 29.8 in SE 8.2 mph 15 mph 31.9% 0 in
16:44 99.1 °F 64 °F 29.8 in SE 8.7 mph 14 mph 31.9% 0 in
16:49 99.1 °F 64 °F 29.8 in ESE 8.5 mph 15 mph 32% 0 in
16:54 98.8 °F 63.9 °F 29.7 in ESE 7.4 mph 15 mph 32% 0 in
16:59 99 °F 64 °F 29.7 in ESE 7.6 mph 15 mph 32% 0 in
17:04 99.1 °F 63.3 °F 29.7 in ESE 8.5 mph 17.3 mph 31.1% 0 in
17:09 99.1 °F 63.1 °F 29.7 in ESE 8.9 mph 17 mph 31% 0 in
17:14 99.1 °F 63.1 °F 29.7 in ESE 10.7 mph 16.1 mph 31% 0 in
17:19 99 °F 63 °F 29.7 in ESE 10.6 mph 16 mph 31% 0 in
17:24 98.6 °F 62.8 °F 29.7 in ESE 10.2 mph 16.1 mph 30.9% 0 in
17:29 98.4 °F 62.4 °F 29.7 in ESE 10.2 mph 17.3 mph 30.8% 0 in
17:34 98.4 °F 61.5 °F 29.7 in ESE 10 mph 17 mph 29.9% 0 in
17:39 98.4 °F 60.8 °F 29.7 in ESE 9.9 mph 16.3 mph 29% 0 in
17:44 98.4 °F 61 °F 29.7 in ESE 9.7 mph 16 mph 29.3% 0 in
17:49 98.4 °F 61 °F 29.7 in ESE 9.6 mph 16.1 mph 29.2% 0 in
17:54 98.8 °F 60.6 °F 29.7 in ESE 9.2 mph 19 mph 28.8% 0 in
17:59 98.8 °F 60.1 °F 29.7 in ESE 9.4 mph 19 mph 28.1% 0 in
18:04 98.6 °F 60.1 °F 29.7 in ESE 10.2 mph 15 mph 28.1% 0 in
18:09 98.4 °F 60.6 °F 29.7 in ESE 9.9 mph 15 mph 29% 0 in
18:14 98.2 °F 60.6 °F 29.7 in Este 8.5 mph 14 mph 29.1% 0 in
18:19 97.9 °F 61.9 °F 29.8 in NE 8.3 mph 12.7 mph 30.9% 0 in
18:24 96.4 °F 62.4 °F 29.8 in NE 7.4 mph 17.5 mph 32.8% 0 in
18:29 95.2 °F 62.4 °F 29.8 in NE 7.6 mph 17 mph 34.1% 0 in
18:34 94.3 °F 61.9 °F 29.8 in NNE 8.7 mph 20.8 mph 34.3% 0 in
18:39 93.4 °F 61.7 °F 29.8 in NE 9.2 mph 21 mph 35% 0 in
18:44 92.8 °F 62.1 °F 29.8 in NE 11.8 mph 21 mph 36% 0 in
18:49 92.7 °F 62.6 °F 29.8 in NNE 11.4 mph 20.8 mph 37% 0 in
18:54 92.1 °F 62.6 °F 29.8 in NE 9.7 mph 21 mph 37.4% 0 in
18:59 91.9 °F 62.6 °F 29.8 in NNE 10 mph 18 mph 38% 0 in
19:04 91.8 °F 63.1 °F 29.8 in NNE 11.2 mph 17 mph 38.8% 0 in
19:09 91.8 °F 63.5 °F 29.8 in NNE 11.1 mph 18.4 mph 39.3% 0 in
19:14 91.8 °F 63.3 °F 29.8 in NNE 10.2 mph 18 mph 39% 0 in
19:19 91.8 °F 63.3 °F 29.8 in NNE 10.1 mph 17.3 mph 39% 0 in
19:24 91.6 °F 63 °F 29.8 in NNE 9.7 mph 17 mph 38.6% 0 in
19:29 91.6 °F 62.2 °F 29.8 in NNE 9.8 mph 17.5 mph 37.8% 0 in
19:34 91.4 °F 62.8 °F 29.8 in NNE 10 mph 17 mph 38.6% 0 in
19:39 91.2 °F 62.2 °F 29.8 in NNE 10 mph 16.1 mph 38% 0 in
19:44 91 °F 61.9 °F 29.8 in NNE 10 mph 18.1 mph 38% 0 in
19:49 90.5 °F 61.9 °F 29.8 in NNE 10.3 mph 19 mph 38.5% 0 in
19:54 90.1 °F 62.4 °F 29.8 in NNE 11.4 mph 19 mph 39.8% 0 in
19:59 90 °F 63.3 °F 29.8 in NE 11.4 mph 18 mph 41.6% 0 in
20:04 89.4 °F 63.9 °F 29.8 in NE 11.2 mph 19.7 mph 42.8% 0 in
20:09 89.2 °F 63.7 °F 29.8 in NNE 11.1 mph 20 mph 42.7% 0 in
20:14 89.1 °F 63.1 °F 29.8 in NNE 10.7 mph 19 mph 42.1% 0 in
20:19 88.9 °F 62.4 °F 29.8 in NNE 10.7 mph 16.1 mph 41.3% 0 in
20:24 88.7 °F 61.9 °F 29.8 in NNE 10.7 mph 16.3 mph 41% 0 in
20:29 88.5 °F 61.7 °F 29.8 in NNE 10.7 mph 16.1 mph 41% 0 in
20:34 88.3 °F 61.7 °F 29.8 in NNE 10.7 mph 16.1 mph 41% 0 in
20:39 88.2 °F 61.5 °F 29.8 in NE 10.6 mph 16 mph 41% 0 in
20:44 88 °F 60.8 °F 29.8 in NNE 10.2 mph 16.1 mph 40.3% 0 in
20:49 88 °F 61.2 °F 29.8 in NE 10.2 mph 16 mph 41% 0 in
20:54 87.6 °F 60.6 °F 29.8 in NNE 10 mph 14 mph 40.4% 0 in
20:59 87.4 °F 60.3 °F 29.8 in NE 9.6 mph 12.7 mph 40% 0 in
21:04 87.4 °F 60.4 °F 29.8 in NNE 8.1 mph 13 mph 40.4% 0 in
21:09 87.3 °F 60.6 °F 29.8 in NNE 8.1 mph 13 mph 41% 0 in
21:14 87.1 °F 60.6 °F 29.8 in NNE 8.5 mph 13 mph 41% 0 in
21:19 86.9 °F 60.4 °F 29.8 in NE 8.3 mph 13 mph 41% 0 in
21:24 86.7 °F 61 °F 29.8 in NNE 7.6 mph 13 mph 42% 0 in
21:29 86.5 °F 60.8 °F 29.8 in NE 7.4 mph 10.4 mph 42% 0 in
21:34 86.5 °F 60.6 °F 29.8 in NE 6.4 mph 10 mph 42% 0 in
21:39 86.5 °F 60.6 °F 29.8 in NE 6.3 mph 9.2 mph 42% 0 in
21:44 86.5 °F 60.6 °F 29.8 in NE 5.9 mph 11.8 mph 42% 0 in
21:49 86.4 °F 60.6 °F 29.8 in NE 6 mph 12 mph 42% 0 in
21:54 86.2 °F 60.1 °F 29.8 in NNE 6.2 mph 12 mph 41.5% 0 in
21:59 86 °F 59.5 °F 29.8 in NE 6.2 mph 11.8 mph 41.1% 0 in
22:04 85.8 °F 59.4 °F 29.8 in NNE 6.4 mph 12 mph 41% 0 in
22:09 85.8 °F 59.4 °F 29.8 in NE 6.5 mph 11 mph 41% 0 in
22:14 85.6 °F 59.4 °F 29.8 in NNE 6.9 mph 11.5 mph 41% 0 in
22:19 85.6 °F 59.2 °F 29.8 in NE 6.8 mph 12 mph 41% 0 in
22:24 85.5 °F 59.2 °F 29.8 in NNE 6.2 mph 9 mph 41% 0 in
22:29 85.5 °F 59 °F 29.8 in NNE 6.2 mph 11.5 mph 41% 0 in
22:34 85.3 °F 59 °F 29.8 in NNE 5.9 mph 12 mph 41.2% 0 in
22:39 84.9 °F 59.2 °F 29.8 in NNE 5.8 mph 9.2 mph 41.7% 0 in
22:44 84.7 °F 59.2 °F 29.8 in NNE 5.4 mph 9 mph 42% 0 in
22:49 84.6 °F 58.8 °F 29.8 in NE 5.3 mph 8 mph 42% 0 in
22:54 84.6 °F 58.8 °F 29.8 in NE 4.7 mph 8.5 mph 42% 0 in
22:59 84.4 °F 59 °F 29.8 in NE 5 mph 9.7 mph 42.3% 0 in
23:04 84.4 °F 59.5 °F 29.8 in NE 6.2 mph 10 mph 43.3% 0 in
23:09 84.4 °F 61 °F 29.8 in NE 6.2 mph 10 mph 45.5% 0 in
23:14 84.4 °F 62.2 °F 29.8 in NE 6.2 mph 10 mph 47.7% 0 in
23:19 84 °F 63.5 °F 29.8 in NE 6 mph 9.2 mph 50.1% 0 in
23:24 83.8 °F 63.9 °F 29.8 in NNE 5.2 mph 9 mph 51% 0 in
23:29 83.8 °F 63 °F 29.8 in North 4.8 mph 7 mph 49.8% 0 in
23:34 83.7 °F 62.8 °F 29.8 in NNO 2.9 mph 5 mph 49.6% 0 in
23:39 83.3 °F 62.6 °F 29.8 in NNE 2.7 mph 4.7 mph 49.8% 0 in
23:44 83.1 °F 63.3 °F 29.8 in NE 1.8 mph 5.2 mph 51.4% 0 in
23:49 82.9 °F 63.3 °F 29.8 in North 1.9 mph 5 mph 51.5% 0 in
23:54 82.9 °F 63 °F 29.8 in NNO 2 mph 5 mph 51% 0 in
23:59 82.9 °F 63 °F 29.8 in NNO 2.1 mph 5 mph 51% 0 in
Murcia-Puente Tocinos, España
Compliments of Weather Underground - 3 mb

La estación de MeteoMurcia.com, publica sus datos en los siguientes proyectos:

Weather Underground PWS IMURCIAP2 Meteoclimatic www.awekas.at

W3Counter
Web Analytics